DTTF

Gafsa Ksar International Airport

Gafsa, Tunisia
TAF DTTF 221500Z 2216/2301 VRB03KT 9999 SCT026 SCT033 PROB30 TEMPO 2216/2220 SCT026TCU
Issued Valid From Valid To
Jan-22 @ 15:00 UTC
(2 hours ago)
Jan-22 @ 16:00 UTC
(54 minutes ago)
Jan-23 @ 01:00 UTC
(in 8 hours)
Jan-22 @ 16:00 to Jan-23 @ 01:00
TAF DTTF 221500Z 2216/2301 VRB03KT 9999 SCT026 SCT033
Wind Visibility Clouds
Variable at 3 knots 10,000+ meters
  • Scattered at 2,600' AGL
  • Scattered at 3,300' AGL
Temporary  (Probability 30%) Jan-22 @ 16:00 to Jan-22 @ 20:00
PROB30 TEMPO 2216/2220 SCT026TCU
Clouds
  • Scattered at 2,600' AGL
TAF DTTF 221500Z 2216/2301 VRB03KT 9999 SCT026 SCT033 PROB30 TEMPO 2216/2220 SCT026TCU
Issued Jan-22 @ 15:00 UTC
(2 hours ago)
Valid From Jan-22 @ 16:00 UTC
(54 minutes ago)
Valid To Jan-23 @ 01:00 UTC
(in 8 hours)
Jan-22 @ 16:00 - Jan-23 @ 01:00
Wind Visibility
Variable at 3 knots 10,000+ meters
Clouds
  • Scattered at 2,600' AGL
  • Scattered at 3,300' AGL
Probability 30% Temporary Jan-22 @ 16:00 - Jan-22 @ 20:00
Clouds
  • Scattered at 2,600' AGL